createdAt,value
2017-10-21T00:01:06.269Z,77.60
2017-10-21T00:03:32.471Z,77.70
2017-10-21T00:05:58.710Z,77.80
2017-10-21T00:08:24.925Z,77.70
2017-10-21T00:10:51.115Z,78.00
2017-10-21T00:13:17.366Z,78.00
2017-10-21T00:15:43.605Z,78.10
2017-10-21T00:18:10.813Z,77.80
2017-10-21T00:20:37.066Z,77.80
2017-10-21T00:23:03.280Z,77.80
2017-10-21T00:25:29.496Z,77.40
2017-10-21T00:27:55.692Z,77.50
2017-10-21T00:30:21.944Z,77.50
2017-10-21T00:32:48.538Z,77.50
2017-10-21T00:35:14.792Z,77.50
2017-10-21T00:37:40.979Z,77.40
2017-10-21T00:40:07.266Z,77.40
2017-10-21T00:42:33.856Z,77.20
2017-10-21T00:45:00.085Z,77.20
2017-10-21T00:47:26.296Z,77.30
2017-10-21T00:49:52.517Z,77.10
2017-10-21T00:52:18.751Z,77.20
2017-10-21T00:54:44.968Z,77.30
2017-10-21T00:57:11.203Z,77.30
2017-10-21T00:59:37.438Z,77.50
2017-10-21T01:02:03.691Z,76.90
2017-10-21T01:04:29.970Z,76.90
2017-10-21T01:06:56.251Z,77.20
2017-10-21T01:09:22.591Z,77.40
2017-10-21T01:11:48.861Z,77.90
2017-10-21T01:14:15.095Z,77.80
2017-10-21T01:16:41.385Z,77.60
2017-10-21T01:19:07.656Z,77.70
2017-10-21T01:21:33.914Z,77.70
2017-10-21T01:24:01.145Z,77.60
2017-10-21T01:26:27.451Z,77.60
2017-10-21T01:28:53.688Z,77.30
2017-10-21T01:31:20.724Z,77.50
2017-10-21T01:33:46.995Z,77.30
2017-10-21T01:36:13.270Z,77.50
2017-10-21T01:38:39.885Z,77.40
2017-10-21T01:41:06.158Z,77.40
2017-10-21T01:43:32.411Z,77.30
2017-10-21T01:45:58.668Z,77.20
2017-10-21T01:48:24.913Z,77.40
2017-10-21T01:50:51.513Z,77.60
2017-10-21T01:53:17.806Z,77.60
2017-10-21T01:55:44.058Z,77.70
2017-10-21T01:58:10.296Z,78.10
2017-10-21T02:00:36.552Z,78.40
2017-10-21T02:03:02.806Z,78.70
2017-10-21T02:05:29.417Z,78.90
2017-10-21T02:07:55.682Z,78.90
2017-10-21T02:10:21.937Z,78.80
2017-10-21T02:12:48.197Z,78.40
2017-10-21T02:15:14.457Z,78.50
2017-10-21T02:17:41.104Z,78.40
2017-10-21T02:20:07.341Z,78.40
2017-10-21T02:22:33.606Z,78.10
2017-10-21T02:24:59.853Z,78.40
2017-10-21T02:27:26.093Z,78.60
2017-10-21T02:29:52.352Z,78.60
2017-10-21T02:32:18.580Z,78.40
2017-10-21T02:34:44.845Z,78.40
2017-10-21T02:37:11.088Z,78.30
2017-10-21T02:39:37.330Z,78.60
2017-10-21T02:42:03.582Z,78.80
2017-10-21T02:44:30.216Z,77.80
2017-10-21T02:46:56.838Z,77.90
2017-10-21T02:49:23.092Z,77.90
2017-10-21T02:51:49.353Z,78.30
2017-10-21T02:54:15.600Z,78.30
2017-10-21T02:56:41.871Z,78.60
2017-10-21T02:59:09.130Z,78.70
2017-10-21T03:01:35.364Z,78.50
2017-10-21T03:04:01.591Z,78.50
2017-10-21T03:06:27.841Z,78.50
2017-10-21T03:08:54.082Z,78.30
2017-10-21T03:11:20.352Z,78.30
2017-10-21T03:13:46.573Z,78.40
2017-10-21T03:16:12.805Z,78.20
2017-10-21T03:21:11.844Z,79.50
2017-10-21T03:23:38.144Z,80.50
2017-10-21T03:26:04.446Z,81.30
2017-10-21T03:28:30.716Z,80.80
2017-10-21T03:30:57.356Z,80.20
2017-10-21T03:33:23.961Z,79.60
2017-10-21T03:35:50.199Z,79.60
2017-10-21T03:38:16.478Z,80.00
2017-10-21T03:40:42.692Z,81.10
2017-10-21T03:43:08.906Z,81.10
2017-10-21T03:45:35.518Z,81.40
2017-10-21T03:48:01.726Z,81.40
2017-10-21T03:50:27.947Z,81.10
2017-10-21T03:52:54.145Z,81.20
2017-10-21T03:55:20.365Z,81.10
2017-10-21T03:57:46.593Z,81.20
2017-10-21T04:00:12.827Z,81.40
2017-10-21T04:02:39.014Z,81.90
2017-10-21T04:05:05.221Z,81.20
2017-10-21T04:07:31.465Z,81.30
2017-10-21T04:09:57.678Z,81.40
2017-10-21T04:12:23.927Z,81.60
2017-10-21T04:14:50.163Z,82.10
2017-10-21T04:17:16.816Z,82.60
2017-10-21T04:19:43.426Z,82.50
2017-10-21T04:22:09.682Z,82.50
2017-10-21T04:24:35.941Z,82.40
2017-10-21T04:27:02.180Z,82.40
2017-10-21T04:29:28.465Z,82.20
2017-10-21T04:31:55.056Z,81.70
2017-10-21T04:34:21.283Z,81.70
2017-10-21T04:36:47.480Z,81.40
2017-10-21T04:39:13.697Z,81.60
2017-10-21T04:41:39.893Z,81.60
2017-10-21T04:44:06.112Z,81.40
2017-10-21T04:46:32.312Z,81.50
2017-10-21T04:48:58.550Z,81.50
2017-10-21T04:51:24.788Z,81.70
2017-10-21T04:53:50.970Z,82.20
2017-10-21T04:56:17.168Z,82.10
2017-10-21T04:58:43.740Z,81.70
2017-10-21T05:01:09.974Z,81.70
2017-10-21T05:03:36.204Z,81.70
2017-10-21T05:06:02.685Z,81.90
2017-10-21T05:08:28.909Z,82.20
2017-10-21T05:10:55.110Z,82.40
2017-10-21T05:13:22.265Z,82.80
2017-10-21T05:15:48.461Z,82.60
2017-10-21T05:18:14.694Z,82.20
2017-10-21T05:20:40.942Z,82.00
2017-10-21T05:23:07.172Z,81.90
2017-10-21T05:25:33.400Z,81.80
2017-10-21T05:27:59.609Z,82.00
2017-10-21T05:30:25.882Z,81.90
2017-10-21T05:32:52.108Z,81.60
2017-10-21T05:35:18.327Z,81.10
2017-10-21T05:37:45.348Z,81.20
2017-10-21T05:40:11.604Z,81.30
2017-10-21T05:42:37.860Z,81.80
2017-10-21T05:45:04.670Z,81.80
2017-10-21T05:47:30.941Z,81.80
2017-10-21T05:49:57.184Z,81.60
2017-10-21T05:52:23.472Z,82.10
2017-10-21T05:54:49.679Z,82.00
2017-10-21T05:57:15.916Z,81.50
2017-10-21T05:59:42.119Z,81.80
2017-10-21T06:02:08.372Z,82.20
2017-10-21T06:04:34.633Z,81.70
2017-10-21T06:07:01.252Z,81.20
2017-10-21T06:09:27.476Z,81.20
2017-10-21T06:11:53.718Z,81.10
2017-10-21T06:14:20.313Z,80.30
2017-10-21T06:16:46.553Z,80.30
2017-10-21T06:19:12.835Z,80.00
2017-10-21T06:21:39.113Z,80.10
2017-10-21T06:24:05.384Z,80.60
2017-10-21T06:26:31.608Z,80.40
2017-10-21T06:28:58.199Z,81.20
2017-10-21T06:31:24.482Z,81.20
2017-10-21T06:33:50.709Z,81.80
2017-10-21T06:36:16.997Z,81.60
2017-10-21T06:38:43.225Z,81.60
2017-10-21T06:41:09.568Z,81.30
2017-10-21T06:43:35.776Z,81.40
2017-10-21T06:46:02.011Z,81.10
2017-10-21T06:48:28.224Z,80.90
2017-10-21T06:50:54.423Z,81.40
2017-10-21T06:53:20.677Z,80.90
2017-10-21T06:55:46.909Z,80.80
2017-10-21T06:58:13.167Z,80.80
2017-10-21T07:00:39.397Z,80.60
2017-10-21T07:03:05.671Z,80.70
2017-10-21T07:05:31.911Z,79.90
2017-10-21T07:07:58.133Z,80.20
2017-10-21T07:10:24.385Z,79.90
2017-10-21T07:12:51.614Z,79.90
2017-10-21T07:15:17.881Z,78.90
2017-10-21T07:17:44.118Z,78.70
2017-10-21T07:20:10.349Z,78.60
2017-10-21T07:22:36.558Z,80.20
2017-10-21T07:25:02.825Z,79.70
2017-10-21T07:27:29.440Z,79.20
2017-10-21T07:29:56.105Z,79.10
2017-10-21T07:32:22.712Z,79.00
2017-10-21T07:34:48.960Z,79.10
2017-10-21T07:37:15.560Z,79.50
2017-10-21T07:39:41.786Z,79.50
2017-10-21T07:42:08.021Z,79.60
2017-10-21T07:44:34.267Z,78.90
2017-10-21T07:47:00.880Z,78.70
2017-10-21T07:49:27.184Z,78.70
2017-10-21T07:51:53.417Z,77.70
2017-10-21T07:54:19.662Z,77.90
2017-10-21T07:56:45.863Z,78.10
2017-10-21T07:59:12.101Z,77.80
2017-10-21T08:01:38.323Z,76.90
2017-10-21T08:04:04.550Z,77.20
2017-10-21T08:06:30.760Z,76.60
2017-10-21T08:08:56.962Z,76.10
2017-10-21T08:11:23.200Z,76.90
2017-10-21T08:13:49.795Z,77.20
2017-10-21T08:16:16.047Z,77.20
2017-10-21T08:18:42.344Z,76.20
2017-10-21T08:21:08.595Z,76.60
2017-10-21T08:23:34.847Z,77.70
2017-10-21T08:26:01.436Z,76.70
2017-10-21T08:28:27.691Z,76.70
2017-10-21T08:30:54.014Z,76.40
2017-10-21T08:33:20.321Z,76.40
2017-10-21T08:35:46.619Z,76.70
2017-10-21T08:38:12.925Z,76.10
2017-10-21T08:40:39.199Z,77.10
2017-10-21T08:43:05.784Z,77.10
2017-10-21T08:45:32.031Z,78.60
2017-10-21T08:47:58.679Z,78.80
2017-10-21T08:50:25.309Z,78.60
2017-10-21T08:52:51.945Z,77.90
2017-10-21T08:55:18.590Z,77.90
2017-10-21T08:57:44.815Z,77.90
2017-10-21T09:00:12.397Z,76.90
2017-10-21T09:02:38.629Z,76.90
2017-10-21T09:05:06.905Z,77.30
2017-10-21T09:07:33.134Z,77.30
2017-10-21T09:09:59.369Z,77.30
2017-10-21T09:12:25.631Z,77.60
2017-10-21T09:14:51.857Z,77.40
2017-10-21T09:17:18.312Z,77.50
2017-10-21T09:19:44.936Z,75.10
2017-10-21T09:22:12.387Z,75.10
2017-10-21T09:24:38.594Z,75.10
2017-10-21T09:27:04.816Z,75.80
2017-10-21T09:29:31.019Z,76.40
2017-10-21T09:31:57.264Z,76.80
2017-10-21T09:34:23.556Z,76.30
2017-10-21T09:36:50.163Z,75.20
2017-10-21T09:39:16.461Z,75.30
2017-10-21T09:41:42.721Z,75.60
2017-10-21T09:44:08.965Z,75.50
2017-10-21T09:46:35.617Z,73.30
2017-10-21T09:49:02.270Z,72.90
2017-10-21T09:51:28.509Z,72.90
2017-10-21T09:53:54.788Z,71.80
2017-10-21T09:56:21.011Z,71.60
2017-10-21T09:58:47.246Z,70.40
2017-10-21T10:01:13.505Z,67.20
2017-10-21T10:03:39.757Z,65.30
2017-10-21T10:06:05.963Z,63.70
2017-10-21T10:08:32.201Z,58.00
2017-10-21T10:10:58.426Z,52.50
2017-10-21T10:13:24.724Z,52.70
2017-10-21T10:15:50.950Z,55.40
2017-10-21T10:18:17.191Z,55.40
2017-10-21T10:20:43.776Z,54.40
2017-10-21T10:23:09.992Z,54.40
2017-10-21T10:25:36.221Z,51.40
2017-10-21T10:28:02.478Z,52.80
2017-10-21T10:30:28.700Z,55.10
2017-10-21T10:32:54.973Z,55.90
2017-10-21T10:35:21.585Z,52.30
2017-10-21T10:37:47.868Z,52.30
2017-10-21T10:40:14.081Z,48.80
2017-10-21T10:42:40.849Z,50.30
2017-10-21T10:45:07.125Z,50.80
2017-10-21T10:47:33.728Z,46.90
2017-10-21T10:50:00.033Z,46.90
2017-10-21T10:52:27.977Z,44.30
2017-10-21T10:54:54.614Z,42.80
2017-10-21T10:57:21.217Z,46.90
2017-10-21T10:59:47.430Z,46.90
2017-10-21T11:02:13.704Z,49.90
2017-10-21T11:04:40.309Z,54.60
2017-10-21T11:07:06.590Z,54.60
2017-10-21T11:09:32.808Z,52.80
2017-10-21T11:11:59.074Z,51.60
2017-10-21T11:14:25.351Z,51.10
2017-10-21T11:16:51.852Z,49.60
2017-10-21T11:19:18.070Z,47.40
2017-10-21T11:21:44.312Z,48.90
2017-10-21T11:24:10.538Z,47.90
2017-10-21T11:26:37.603Z,47.60
2017-10-21T11:29:03.884Z,47.90
2017-10-21T11:31:30.111Z,49.00
2017-10-21T11:33:56.381Z,48.50
2017-10-21T11:36:22.934Z,47.80
2017-10-21T11:38:49.306Z,48.50
2017-10-21T11:41:15.741Z,48.70
2017-10-21T11:43:42.017Z,50.70
2017-10-21T11:46:08.260Z,52.80
2017-10-21T11:48:34.886Z,55.30
2017-10-21T11:51:01.178Z,55.30
2017-10-21T11:53:27.429Z,54.90
2017-10-21T11:55:53.727Z,53.90
2017-10-21T11:58:20.759Z,51.90
2017-10-21T12:00:46.984Z,49.70
2017-10-21T12:03:13.223Z,51.30
2017-10-21T12:05:39.461Z,49.80
2017-10-21T12:08:05.753Z,50.50
2017-10-21T12:10:32.359Z,46.90
2017-10-21T12:12:58.625Z,46.90
2017-10-21T12:15:25.265Z,45.60
2017-10-21T12:17:51.767Z,45.70
2017-10-21T12:20:17.990Z,45.20
2017-10-21T12:22:44.246Z,45.90
2017-10-21T12:25:10.813Z,46.80
2017-10-21T12:27:38.049Z,46.80
2017-10-21T12:30:04.336Z,47.60
2017-10-21T12:32:30.562Z,49.30
2017-10-21T12:34:56.813Z,50.50
2017-10-21T12:37:23.378Z,50.40
2017-10-21T12:39:49.643Z,50.40
2017-10-21T12:42:15.892Z,49.00
2017-10-21T12:44:42.177Z,49.10
2017-10-21T12:47:08.398Z,49.80
2017-10-21T12:49:34.639Z,51.70
2017-10-21T12:52:00.879Z,51.80
2017-10-21T12:54:27.120Z,52.40
2017-10-21T12:56:53.759Z,52.30
2017-10-21T12:59:20.074Z,52.30
2017-10-21T13:01:46.370Z,52.90
2017-10-21T13:04:12.727Z,53.10
2017-10-21T13:06:38.974Z,53.80
2017-10-21T13:09:05.211Z,53.50
2017-10-21T13:11:32.245Z,50.20
2017-10-21T13:13:58.476Z,47.60
2017-10-21T13:16:24.726Z,45.70
2017-10-21T13:18:50.971Z,42.30
2017-10-21T13:21:17.534Z,45.80
2017-10-21T13:23:43.805Z,45.80
2017-10-21T13:26:10.079Z,47.00
2017-10-21T13:28:37.339Z,47.70
2017-10-21T13:31:03.584Z,47.40
2017-10-21T13:33:29.893Z,47.70
2017-10-21T13:35:57.182Z,48.00
2017-10-21T13:38:24.333Z,48.00
2017-10-21T13:40:50.576Z,50.00
2017-10-21T13:43:17.743Z,50.30
2017-10-21T13:45:44.359Z,51.70
2017-10-21T13:48:10.561Z,51.70
2017-10-21T13:50:36.863Z,52.20
2017-10-21T13:53:03.106Z,53.00
2017-10-21T13:55:29.336Z,54.20
2017-10-21T13:57:55.591Z,54.60
2017-10-21T14:00:21.801Z,55.10
2017-10-21T14:02:48.057Z,55.60
2017-10-21T14:05:14.329Z,56.10
2017-10-21T14:07:41.578Z,57.70
2017-10-21T14:10:07.806Z,58.30
2017-10-21T14:12:34.461Z,58.20
2017-10-21T14:15:00.687Z,58.20
2017-10-21T14:17:26.898Z,58.40
2017-10-21T14:19:53.534Z,58.20
2017-10-21T14:22:20.127Z,58.20
2017-10-21T14:24:46.391Z,58.20
2017-10-21T14:27:12.966Z,59.20
2017-10-21T14:29:39.224Z,59.20
2017-10-21T14:32:05.469Z,59.50
2017-10-21T14:34:31.743Z,60.30
2017-10-21T14:36:57.985Z,60.70
2017-10-21T14:39:25.234Z,59.80
2017-10-21T14:41:51.458Z,60.30
2017-10-21T14:44:17.686Z,59.10
2017-10-21T14:46:43.940Z,59.40
2017-10-21T14:49:10.221Z,57.90
2017-10-21T14:51:36.492Z,57.30
2017-10-21T14:54:02.766Z,56.40
2017-10-21T14:56:29.477Z,57.00
2017-10-21T14:58:55.726Z,57.00
2017-10-21T15:01:22.014Z,57.70
2017-10-21T15:03:48.253Z,58.00
2017-10-21T15:06:14.520Z,58.40
2017-10-21T15:08:41.117Z,58.50
2017-10-21T15:11:07.361Z,58.50
2017-10-21T15:13:33.671Z,58.60
2017-10-21T15:15:59.906Z,59.00
2017-10-21T15:18:26.205Z,59.00
2017-10-21T15:20:52.464Z,59.90
2017-10-21T15:23:18.729Z,61.00
2017-10-21T15:25:44.983Z,60.20
2017-10-21T15:28:11.453Z,60.80
2017-10-21T15:30:37.698Z,61.10
2017-10-21T15:33:03.905Z,61.40
2017-10-21T15:35:30.156Z,62.00
2017-10-21T15:37:56.380Z,61.30
2017-10-21T15:40:23.415Z,61.10
2017-10-21T15:42:49.624Z,61.60
2017-10-21T15:45:15.910Z,62.40
2017-10-21T15:47:42.167Z,62.20
2017-10-21T15:50:08.406Z,62.70
2017-10-21T15:52:34.642Z,63.00
2017-10-21T15:55:00.885Z,64.90
2017-10-21T15:57:27.156Z,64.10
2017-10-21T15:59:53.404Z,63.40
2017-10-21T16:02:19.640Z,63.50
2017-10-21T16:04:46.112Z,64.20
2017-10-21T16:07:12.396Z,65.30
2017-10-21T16:09:38.669Z,65.50
2017-10-21T16:12:04.900Z,66.10
2017-10-21T16:14:32.077Z,66.40
2017-10-21T16:16:58.661Z,66.90
2017-10-21T16:19:24.940Z,66.90
2017-10-21T16:21:51.541Z,68.10
2017-10-21T16:24:17.781Z,68.10
2017-10-21T16:26:44.006Z,68.30
2017-10-21T16:29:10.263Z,68.70
2017-10-21T16:31:36.888Z,69.80
2017-10-21T16:34:03.088Z,69.80
2017-10-21T16:36:29.323Z,70.00
2017-10-21T16:38:55.547Z,70.50
2017-10-21T16:41:21.775Z,70.80
2017-10-21T16:43:48.022Z,71.20
2017-10-21T16:46:14.390Z,71.70
2017-10-21T16:48:40.705Z,72.20
2017-10-21T16:51:06.990Z,72.50
2017-10-21T16:53:33.307Z,72.80
2017-10-21T16:55:59.527Z,72.90
2017-10-21T16:58:25.889Z,73.10
2017-10-21T17:00:52.267Z,73.10
2017-10-21T17:03:19.105Z,73.40
2017-10-21T17:05:45.987Z,73.50
2017-10-21T17:08:12.292Z,74.00
2017-10-21T17:10:38.614Z,74.40
2017-10-21T17:13:05.023Z,74.30
2017-10-21T17:15:31.369Z,74.40
2017-10-21T17:17:58.040Z,73.60
2017-10-21T17:20:25.166Z,73.60
2017-10-21T17:22:51.453Z,73.70
2017-10-21T17:25:17.741Z,73.50
2017-10-21T17:27:43.984Z,73.60
2017-10-21T17:30:10.221Z,73.80
2017-10-21T17:32:36.540Z,73.70
2017-10-21T17:35:02.889Z,73.80
2017-10-21T17:37:29.319Z,73.80
2017-10-21T17:39:55.545Z,73.80
2017-10-21T17:42:21.782Z,73.70
2017-10-21T17:44:48.042Z,73.50
2017-10-21T17:47:14.339Z,73.40
2017-10-21T17:49:40.611Z,73.60
2017-10-21T17:52:07.209Z,73.70
2017-10-21T17:54:33.442Z,73.70
2017-10-21T17:56:59.721Z,73.70
2017-10-21T17:59:26.005Z,74.00
2017-10-21T18:01:53.347Z,74.40
2017-10-21T18:04:19.598Z,74.60
2017-10-21T18:06:46.291Z,74.30
2017-10-21T18:09:13.476Z,74.30
2017-10-21T18:11:39.792Z,74.40
2017-10-21T18:14:06.105Z,74.20
2017-10-21T18:16:32.669Z,74.40
2017-10-21T18:18:59.605Z,74.30
2017-10-21T18:21:25.898Z,74.40
2017-10-21T18:23:52.167Z,74.50
2017-10-21T18:26:18.486Z,74.60
2017-10-21T18:28:44.824Z,74.70
2017-10-21T18:31:11.139Z,74.70
2017-10-21T18:33:38.082Z,74.80
2017-10-21T18:36:04.597Z,74.80
2017-10-21T18:38:30.852Z,74.90
2017-10-21T18:40:57.198Z,75.30
2017-10-21T18:43:23.468Z,75.20
2017-10-21T18:45:49.761Z,75.50
2017-10-21T18:48:15.996Z,76.70
2017-10-21T18:50:42.277Z,76.70
2017-10-21T18:53:08.839Z,77.20
2017-10-21T18:55:35.193Z,76.90
2017-10-21T18:58:01.577Z,77.60
2017-10-21T19:00:27.949Z,79.90
2017-10-21T19:02:54.214Z,84.30
2017-10-21T19:05:20.645Z,85.50
2017-10-21T19:07:46.944Z,85.20
2017-10-21T19:10:13.601Z,84.70
2017-10-21T19:12:40.928Z,85.80
2017-10-21T19:15:07.242Z,85.10
2017-10-21T19:17:33.581Z,86.10
2017-10-21T19:19:59.924Z,85.10
2017-10-21T19:22:26.994Z,82.60
2017-10-21T19:24:53.677Z,82.50
2017-10-21T19:27:19.972Z,82.50
2017-10-21T19:29:46.390Z,83.50
2017-10-21T19:32:12.796Z,83.10
2017-10-21T19:34:39.212Z,83.30
2017-10-21T19:37:05.509Z,82.90
2017-10-21T19:39:32.413Z,81.30
2017-10-21T19:41:59.329Z,83.10
2017-10-21T19:44:25.597Z,83.10
2017-10-21T19:46:52.257Z,82.60
2017-10-21T19:49:18.548Z,82.60
2017-10-21T19:51:45.041Z,81.50
2017-10-21T19:54:11.389Z,83.30
2017-10-21T19:56:37.633Z,82.10
2017-10-21T19:59:03.948Z,82.30
2017-10-21T20:01:31.971Z,82.00
2017-10-21T20:03:58.623Z,85.00
2017-10-21T20:06:24.899Z,85.00
2017-10-21T20:08:51.202Z,84.30
2017-10-21T20:11:17.468Z,86.60
2017-10-21T20:13:43.743Z,86.30
2017-10-21T20:16:10.034Z,86.80
2017-10-21T20:18:36.268Z,85.70
2017-10-21T20:21:03.029Z,86.30
2017-10-21T20:23:29.615Z,86.30
2017-10-21T20:25:55.895Z,86.20
2017-10-21T20:28:22.489Z,83.00
2017-10-21T20:30:48.756Z,83.00
2017-10-21T20:33:17.069Z,86.20
2017-10-21T20:35:43.328Z,86.20
2017-10-21T20:38:09.666Z,84.50
2017-10-21T20:40:35.953Z,81.50
2017-10-21T20:43:02.212Z,82.10
2017-10-21T20:45:28.545Z,81.90
2017-10-21T20:47:54.812Z,84.10
2017-10-21T20:50:21.409Z,82.30
2017-10-21T20:52:48.517Z,82.30
2017-10-21T20:55:14.909Z,83.20
2017-10-21T20:57:41.184Z,82.50
2017-10-21T21:00:07.566Z,83.50
2017-10-21T21:02:33.892Z,84.20
2017-10-21T21:05:00.173Z,79.40
2017-10-21T21:07:26.407Z,80.50
2017-10-21T21:09:52.722Z,81.30
2017-10-21T21:12:20.126Z,78.10
2017-10-21T21:14:47.523Z,79.70
2017-10-21T21:17:14.124Z,77.40
2017-10-21T21:19:40.952Z,79.50
2017-10-21T21:22:07.228Z,79.60
2017-10-21T21:24:33.477Z,78.90
2017-10-21T21:27:00.856Z,78.40
2017-10-21T21:29:27.077Z,78.90
2017-10-21T21:31:53.417Z,80.20
2017-10-21T21:34:19.651Z,78.90
2017-10-21T21:36:45.916Z,79.20
2017-10-21T21:39:12.542Z,77.60
2017-10-21T21:41:39.248Z,80.50
2017-10-21T21:44:05.496Z,80.50
2017-10-21T21:46:31.740Z,76.90
2017-10-21T21:48:58.458Z,77.70
2017-10-21T21:51:24.722Z,77.70
2017-10-21T21:53:51.353Z,78.80
2017-10-21T21:56:17.949Z,77.90
2017-10-21T21:58:44.192Z,78.00
2017-10-21T22:01:10.477Z,76.30
2017-10-21T22:03:36.789Z,75.90
2017-10-21T22:06:03.435Z,76.40
2017-10-21T22:08:29.683Z,76.40
2017-10-21T22:10:55.951Z,76.60
2017-10-21T22:13:22.181Z,77.40
2017-10-21T22:15:48.434Z,77.00
2017-10-21T22:18:15.016Z,77.90
2017-10-21T22:20:41.285Z,77.90
2017-10-21T22:23:07.946Z,79.00
2017-10-21T22:25:34.222Z,79.00
2017-10-21T22:28:00.633Z,78.90
2017-10-21T22:30:26.890Z,79.50
2017-10-21T22:32:53.122Z,78.20
2017-10-21T22:35:20.847Z,78.80
2017-10-21T22:37:47.078Z,79.80
2017-10-21T22:40:13.346Z,79.80
2017-10-21T22:42:39.598Z,81.40
2017-10-21T22:45:06.227Z,81.20
2017-10-21T22:47:32.434Z,81.20
2017-10-21T22:49:58.684Z,82.30
2017-10-21T22:52:24.892Z,83.10
2017-10-21T22:54:51.148Z,84.00
2017-10-21T22:57:17.760Z,85.80
2017-10-21T22:59:44.029Z,85.80
2017-10-21T23:02:10.259Z,84.70
2017-10-21T23:04:36.479Z,85.60
2017-10-21T23:07:03.097Z,87.90
2017-10-21T23:09:29.328Z,87.90
2017-10-21T23:11:56.488Z,89.10
2017-10-21T23:14:23.074Z,90.30
2017-10-21T23:16:49.295Z,90.30
2017-10-21T23:19:15.506Z,88.70
2017-10-21T23:21:41.732Z,87.30
2017-10-21T23:24:07.994Z,87.50
2017-10-21T23:26:34.214Z,87.50
2017-10-21T23:29:00.442Z,87.50
2017-10-21T23:31:26.654Z,89.10
2017-10-21T23:33:53.225Z,89.00
2017-10-21T23:36:19.438Z,87.80
2017-10-21T23:38:45.649Z,86.80
2017-10-21T23:41:11.872Z,86.40
2017-10-21T23:43:38.166Z,87.50
2017-10-21T23:46:04.746Z,88.10
2017-10-21T23:48:30.949Z,88.10
2017-10-21T23:50:57.196Z,87.30
2017-10-21T23:53:26.306Z,85.60
2017-10-21T23:55:52.530Z,87.40
2017-10-21T23:58:18.751Z,87.80
